Time;durP1;ratioP1;P1;durP2;ratioP2;P2;SDS_P1;SDS_P2;PMS_P1;PMS_P2;Temp;Humidity;BMP_temperature;BMP_pressure;BME280_temperature;BME280_humidity;BME280_pressure;Samples;Min_cycle;Max_cycle;Signal;HPM_P1;HPM_P2
2023/03/18 00:00:44;;;;;;;14.90;13.30;;;;;;;2.17;100.00;96575.22;5021998;28;20222;-69
2023/03/18 00:03:12;;;;;;;13.67;12.37;;;;;;;2.14;100.00;96575.50;5020047;28;20207;-69
2023/03/18 00:05:40;;;;;;;14.73;13.23;;;;;;;2.16;100.00;96568.34;5035269;28;20213;-69
2023/03/18 00:08:08;;;;;;;12.80;11.60;;;;;;;2.15;100.00;96569.31;5025074;28;21145;-69
2023/03/18 00:10:36;;;;;;;12.10;11.00;;;;;;;2.02;100.00;96567.03;5022673;28;20741;-70
2023/03/18 00:13:04;;;;;;;12.63;11.43;;;;;;;1.95;100.00;96578.25;5014252;28;20222;-69
2023/03/18 00:15:32;;;;;;;12.83;11.53;;;;;;;2.03;100.00;96578.34;5044316;28;20289;-70
2023/03/18 00:18:01;;;;;;;11.80;10.60;;;;;;;2.12;100.00;96584.47;5001251;28;20234;-69
2023/03/18 00:20:37;;;;;;;12.57;11.27;;;;;;;2.09;100.00;96588.19;5040930;28;20214;-69
2023/03/18 00:23:07;;;;;;;12.20;11.13;;;;;;;1.88;100.00;96577.97;5032373;28;20194;-69
2023/03/18 00:25:36;;;;;;;12.40;11.17;;;;;;;1.85;100.00;96597.38;5022783;28;20206;-70
2023/03/18 00:28:05;;;;;;;11.53;10.40;;;;;;;1.84;100.00;96585.28;5020401;28;20215;-70
2023/03/18 00:30:33;;;;;;;12.13;10.83;;;;;;;1.80;100.00;96599.59;5039576;28;20211;-70
2023/03/18 00:33:02;;;;;;;10.73;9.67;;;;;;;1.87;100.00;96605.06;5000438;28;21195;-69
2023/03/18 00:35:30;;;;;;;10.40;9.43;;;;;;;1.86;100.00;96603.44;5040990;28;20797;-69
2023/03/18 00:37:59;;;;;;;15.50;10.80;;;;;;;1.84;100.00;96610.59;5033182;28;20226;-69
2023/03/18 00:40:41;;;;;;;10.40;9.40;;;;;;;1.80;100.00;96615.25;5038306;28;20857;-69
2023/03/18 00:43:09;;;;;;;10.77;9.67;;;;;;;1.77;100.00;96625.19;5002737;28;20203;-69
2023/03/18 00:45:39;;;;;;;11.57;10.03;;;;;;;1.73;100.00;96625.47;5033424;28;20207;-70
2023/03/18 00:48:08;;;;;;;10.60;9.70;;;;;;;1.62;100.00;96612.56;5030007;28;20222;-69
2023/03/18 00:50:36;;;;;;;11.30;10.30;;;;;;;1.59;100.00;96610.25;5017046;28;20217;-69
2023/03/18 00:53:04;;;;;;;10.50;9.60;;;;;;;1.59;100.00;96623.31;5032569;28;20218;-69
2023/03/18 00:55:32;;;;;;;12.87;11.30;;;;;;;1.58;100.00;96627.72;5038172;28;20225;-69
2023/03/18 00:57:59;;;;;;;12.20;11.10;;;;;;;1.48;100.00;96626.09;4994249;28;20993;-69
2023/03/18 01:00:27;;;;;;;11.77;10.33;;;;;;;1.47;100.00;96629.66;5038072;28;20199;-69
2023/03/18 01:02:56;;;;;;;10.63;9.60;;;;;;;1.40;100.00;96618.94;5020847;28;20239;-68
2023/03/18 01:05:25;;;;;;;11.73;10.70;;;;;;;1.28;100.00;96615.66;5009047;28;20725;-68
2023/03/18 01:07:53;;;;;;;12.70;11.20;;;;;;;1.22;100.00;96621.44;5030568;28;20227;-69
2023/03/18 01:10:20;;;;;;;12.93;11.63;;;;;;;1.18;100.00;96622.69;5036256;28;20199;-69
2023/03/18 01:12:48;;;;;;;12.97;11.87;;;;;;;1.18;100.00;96622.69;4999348;28;20199;-69
2023/03/18 01:15:18;;;;;;;11.17;10.23;;;;;;;1.04;100.00;96613.47;5043948;28;20241;-68
2023/03/18 01:17:46;;;;;;;11.37;10.37;;;;;;;1.01;100.00;96614.59;5018558;28;20237;-69
2023/03/18 01:20:16;;;;;;;12.07;10.87;;;;;;;1.01;100.00;96623.22;5041362;28;20195;-69
2023/03/18 01:22:46;;;;;;;12.83;11.63;;;;;;;0.98;100.00;96613.06;5020340;28;20203;-69
2023/03/18 01:25:15;;;;;;;12.00;10.77;;;;;;;0.91;100.00;96617.19;5049241;28;20198;-69
2023/03/18 01:27:43;;;;;;;15.57;11.90;;;;;;;0.95;100.00;96621.19;5022963;28;20848;-69
2023/03/18 01:30:13;;;;;;;13.10;11.90;;;;;;;0.90;100.00;96626.00;5039675;28;20238;-68
2023/03/18 01:32:42;;;;;;;12.13;11.07;;;;;;;0.86;100.00;96620.22;5026237;28;20292;-69
2023/03/18 01:35:11;;;;;;;12.87;11.57;;;;;;;0.76;100.00;96627.22;5035481;28;20889;-68
2023/03/18 01:37:39;;;;;;;14.27;12.77;;;;;;;0.75;100.00;96633.38;5014601;28;20217;-68
2023/03/18 01:40:12;;;;;;;13.03;11.83;;;;;;;0.79;100.00;96639.97;5037225;28;20203;-69
2023/03/18 01:42:40;;;;;;;12.83;11.63;;;;;;;0.69;100.00;96641.75;5014348;28;20211;-69
2023/03/18 01:45:16;;;;;;;15.10;11.87;;;;;;;0.68;100.00;96637.50;5029864;28;20194;-68
2023/03/18 01:47:45;;;;;;;13.43;12.07;;;;;;;0.65;100.00;96640.38;5038342;28;20250;-68
2023/03/18 01:50:14;;;;;;;12.77;11.47;;;;;;;0.72;100.00;96641.47;5023673;28;20217;-68
2023/03/18 01:52:43;;;;;;;14.43;12.63;;;;;;;0.64;100.00;96633.53;5023320;28;20198;-68
2023/03/18 01:55:16;;;;;;;14.47;12.10;;;;;;;0.72;100.00;96644.09;5039453;28;20238;-68
2023/03/18 01:57:44;;;;;;;13.03;11.80;;;;;;;0.73;100.00;96645.75;5037474;28;21507;-68
2023/03/18 02:00:15;;;;;;;13.27;11.97;;;;;;;0.71;100.00;96629.41;4999713;28;20288;-68
2023/03/18 02:02:44;;;;;;;14.63;12.40;;;;;;;0.70;100.00;96644.22;5029090;28;20201;-68
2023/03/18 02:05:15;;;;;;;13.27;12.10;;;;;;;0.70;100.00;96644.22;5021967;28;20241;-68
2023/03/18 02:07:44;;;;;;;13.80;12.50;;;;;;;0.63;100.00;96640.50;5020610;28;20246;-69
2023/03/18 02:10:15;;;;;;;12.93;11.73;;;;;;;0.61;100.00;96657.25;5041744;28;20240;-68
2023/03/18 02:12:44;;;;;;;12.50;11.30;;;;;;;0.50;100.00;96660.78;5037484;28;20872;-68
2023/03/18 02:15:15;;;;;;;13.87;12.50;;;;;;;0.43;100.00;96643.09;5000210;28;20815;-68
2023/03/18 02:17:46;;;;;;;12.80;11.43;;;;;;;0.38;100.00;96660.91;5036466;28;20210;-68
2023/03/18 02:20:28;;;;;;;13.87;12.40;;;;;;;0.44;100.00;96659.53;5019434;28;20214;-68
2023/03/18 02:23:00;;;;;;;12.63;10.77;;;;;;;0.41;100.00;96659.81;5007588;28;21154;-68
2023/03/18 02:25:37;;;;;;;13.00;11.70;;;;;;;0.35;100.00;96660.34;5037358;28;20207;-68
2023/03/18 02:28:09;;;;;;;13.33;12.10;;;;;;;0.33;100.00;96663.06;5040816;28;20214;-68
2023/03/18 02:30:40;;;;;;;12.57;11.40;;;;;;;0.31;100.00;96667.59;4991360;28;20225;-68
2023/03/18 02:33:09;;;;;;;12.67;11.47;;;;;;;0.30;100.00;96663.34;5040714;28;21188;-68
2023/03/18 02:35:37;;;;;;;11.60;10.57;;;;;;;0.36;100.00;96667.19;5020794;28;20777;-69
2023/03/18 02:38:05;;;;;;;12.60;10.97;;;;;;;0.16;100.00;96656.69;5035848;28;20214;-68
2023/03/18 02:40:34;;;;;;;12.47;10.47;;;;;;;0.18;100.00;96673.03;5018622;28;20211;-70
2023/03/18 02:43:21;;;;;;;12.57;11.40;;;;;;;0.18;100.00;96665.19;5038164;28;20199;-69
2023/03/18 02:46:01;;;;;;;12.90;11.63;;;;;;;0.22;100.00;96664.00;4994385;28;20202;-69
2023/03/18 02:48:35;;;;;;;11.37;10.10;;;;;;;0.21;100.00;96662.38;5041057;28;20215;-71
2023/03/18 02:51:03;;;;;;;12.07;10.97;;;;;;;0.18;100.00;96657.38;5004561;28;20591;-70
2023/03/18 02:53:31;;;;;;;12.27;9.97;;;;;;;0.14;100.00;96663.81;5034178;28;20622;-68
2023/03/18 02:55:59;;;;;;;11.20;9.90;;;;;;;0.07;100.00;96671.34;5025460;28;20716;-68
2023/03/18 02:58:28;;;;;;;12.63;11.30;;;;;;;0.06;100.00;96666.25;5042604;28;20233;-69
2023/03/18 03:00:57;;;;;;;11.90;10.53;;;;;;;-0.04;100.00;96663.59;4997757;28;20207;-68
2023/03/18 03:03:25;;;;;;;11.33;10.23;;;;;;;-0.05;100.00;96665.41;5036223;28;20956;-69
2023/03/18 03:05:53;;;;;;;12.50;11.20;;;;;;;-0.18;100.00;96664.81;5020695;28;20831;-68
2023/03/18 03:08:21;;;;;;;10.63;9.43;;;;;;;-0.04;100.00;96668.81;5025395;28;20315;-70
2023/03/18 03:10:49;;;;;;;10.77;9.67;;;;;;;0.00;100.00;96667.63;5016461;28;20211;-69
2023/03/18 03:13:17;;;;;;;10.87;9.77;;;;;;;-0.08;100.00;96676.09;5031721;28;20207;-69
2023/03/18 03:15:47;;;;;;;11.77;10.53;;;;;;;-0.20;100.00;96682.31;4997589;28;20230;-68
2023/03/18 03:18:15;;;;;;;10.93;10.03;;;;;;;-0.26;100.00;96670.66;5042075;28;20223;-69
2023/03/18 03:20:43;;;;;;;11.33;10.33;;;;;;;-0.14;100.00;96684.41;5039664;28;20199;-68
2023/03/18 03:23:13;;;;;;;11.50;10.40;;;;;;;-0.20;100.00;96685.75;5016863;28;20739;-69
2023/03/18 03:25:41;;;;;;;12.53;11.10;;;;;;;-0.18;100.00;96686.44;5012799;28;20729;-68
2023/03/18 03:28:09;;;;;;;11.60;10.50;;;;;;;-0.19;100.00;96689.16;5038087;28;20236;-68
2023/03/18 03:30:37;;;;;;;11.03;10.03;;;;;;;-0.23;100.00;96683.41;4992845;28;20626;-68
2023/03/18 03:33:07;;;;;;;12.10;10.97;;;;;;;-0.26;100.00;96682.81;5034100;28;20213;-68
2023/03/18 03:35:34;;;;;;;12.67;11.47;;;;;;;-0.29;100.00;96681.31;5040095;28;20232;-68
2023/03/18 03:38:03;;;;;;;11.03;10.03;;;;;;;-0.25;100.00;96700.94;5022058;28;20281;-68
2023/03/18 03:40:30;;;;;;;12.53;10.93;;;;;;;-0.32;100.00;96699.81;5016987;28;20195;-68
2023/03/18 03:42:58;;;;;;;12.50;11.23;;;;;;;-0.40;100.00;96695.22;5042321;28;20959;-68
2023/03/18 03:45:26;;;;;;;10.43;9.53;;;;;;;-0.40;100.00;96689.16;5004030;28;20204;-70
2023/03/18 03:47:54;;;;;;;12.13;10.83;;;;;;;-0.37;100.00;96710.59;5043814;28;20219;-68
2023/03/18 03:50:23;;;;;;;10.97;9.97;;;;;;;-0.33;100.00;96696.34;5034123;28;20298;-68
2023/03/18 03:52:51;;;;;;;10.67;9.60;;;;;;;-0.30;100.00;96703.91;5015398;28;20199;-68
2023/03/18 03:55:21;;;;;;;9.83;9.00;;;;;;;-0.32;100.00;96703.22;5039118;28;21158;-69
2023/03/18 03:57:49;;;;;;;10.57;9.57;;;;;;;-0.31;100.00;96717.06;5018507;28;20222;-68
2023/03/18 04:00:20;;;;;;;10.77;9.27;;;;;;;-0.36;100.00;96717.44;5030077;28;20735;-69
2023/03/18 04:02:49;;;;;;;10.67;9.77;;;;;;;-0.39;100.00;96722.06;5000678;28;20210;-69
2023/03/18 04:05:18;;;;;;;11.87;10.67;;;;;;;-0.40;100.00;96723.84;5041936;28;20213;-69
2023/03/18 04:07:48;;;;;;;12.80;10.97;;;;;;;-0.45;100.00;96721.63;5012510;28;23666;-69
2023/03/18 04:10:19;;;;;;;10.67;9.77;;;;;;;-0.48;100.00;96727.06;5030983;28;20796;-69
2023/03/18 04:12:48;;;;;;;11.07;9.83;;;;;;;-0.57;100.00;96720.03;5014928;28;20215;-68
2023/03/18 04:15:18;;;;;;;11.87;9.67;;;;;;;-0.67;100.00;96716.53;5031258;28;21077;-69
2023/03/18 04:17:46;;;;;;;10.67;9.57;;;;;;;-0.85;100.00;96714.47;5002130;28;20219;-69
2023/03/18 04:20:14;;;;;;;10.90;9.80;;;;;;;-0.79;100.00;96716.56;5044163;28;20907;-69
2023/03/18 04:22:41;;;;;;;11.23;10.17;;;;;;;-0.67;100.00;96714.75;5016580;28;20444;-69
2023/03/18 04:25:13;;;;;;;10.60;9.60;;;;;;;-0.65;100.00;96712.84;5033966;28;21025;-68
2023/03/18 04:27:41;;;;;;;10.73;9.63;;;;;;;-0.67;100.00;96716.53;5014054;28;20231;-69
2023/03/18 04:30:11;;;;;;;10.87;9.77;;;;;;;-0.71;100.00;96718.56;5033095;28;20206;-69
2023/03/18 04:32:38;;;;;;;10.50;9.60;;;;;;;-0.81;100.00;96721.06;4994510;28;21231;-69
2023/03/18 04:35:07;;;;;;;11.70;10.53;;;;;;;-0.70;100.00;96727.19;5043975;28;20218;-68
2023/03/18 04:37:35;;;;;;;11.43;10.23;;;;;;;-0.61;100.00;96732.47;5028475;28;20211;-68
2023/03/18 04:40:05;;;;;;;11.50;9.80;;;;;;;-0.82;100.00;96726.41;5018057;28;20210;-69
2023/03/18 04:42:34;;;;;;;10.97;9.87;;;;;;;-0.71;100.00;96723.75;5036257;28;21143;-69
2023/03/18 04:45:04;;;;;;;10.83;9.90;;;;;;;-0.59;100.00;96722.75;5021654;28;20202;-68
2023/03/18 04:47:33;;;;;;;10.70;9.70;;;;;;;-0.53;100.00;96729.25;5011299;28;20468;-69
2023/03/18 04:50:01;;;;;;;11.50;10.40;;;;;;;-0.56;100.00;96734.69;5002741;28;20470;-69
2023/03/18 04:52:28;;;;;;;13.07;10.87;;;;;;;-0.61;100.00;96729.03;5037237;28;20207;-69
2023/03/18 04:54:56;;;;;;;11.00;9.90;;;;;;;-0.61;100.00;96729.84;5016517;28;20207;-68
2023/03/18 04:57:24;;;;;;;10.77;9.77;;;;;;;-0.53;100.00;96746.66;5034623;28;20230;-68
2023/03/18 04:59:54;;;;;;;10.80;9.80;;;;;;;-0.49;100.00;96745.44;5018104;28;20210;-72
2023/03/18 05:02:21;;;;;;;12.33;10.67;;;;;;;-0.43;100.00;96734.53;5008918;28;20265;-70
2023/03/18 05:04:50;;;;;;;11.33;10.33;;;;;;;-0.41;100.00;96745.63;4991711;28;20229;-70
2023/03/18 05:07:17;;;;;;;10.50;9.50;;;;;;;-0.47;100.00;96728.72;5036148;28;20223;-74
2023/03/18 05:09:45;;;;;;;11.73;10.57;;;;;;;-0.49;100.00;96719.41;5020060;28;20655;-73
2023/03/18 05:12:14;;;;;;;10.30;9.30;;;;;;;-0.44;100.00;96732.88;5030577;28;20218;-71
2023/03/18 05:14:43;;;;;;;11.60;10.30;;;;;;;-0.41;100.00;96726.56;5011785;28;20202;-73
2023/03/18 05:17:15;;;;;;;10.43;9.33;;;;;;;-0.36;100.00;96733.06;5031414;28;20273;-72
2023/03/18 05:19:45;;;;;;;12.13;11.03;;;;;;;-0.32;100.00;96734.47;4998718;28;20219;-71
2023/03/18 05:22:14;;;;;;;10.90;9.80;;;;;;;-0.35;100.00;96739.91;5039306;28;20213;-73
2023/03/18 05:24:42;;;;;;;10.83;9.63;;;;;;;-0.33;100.00;96738.00;5041553;28;20203;-72
2023/03/18 05:27:10;;;;;;;10.93;9.77;;;;;;;-0.49;100.00;96735.03;4987430;28;20229;-70
2023/03/18 05:29:39;;;;;;;10.63;9.53;;;;;;;-0.45;100.00;96746.84;5028992;28;21083;-69
2023/03/18 05:32:08;;;;;;;10.07;9.07;;;;;;;-0.50;100.00;96738.59;5003106;28;20898;-68
2023/03/18 05:34:39;;;;;;;10.60;9.60;;;;;;;-0.44;100.00;96749.31;5004074;28;20648;-68
2023/03/18 05:37:08;;;;;;;9.67;8.87;;;;;;;-0.27;100.00;96747.09;5039426;28;20229;-68
2023/03/18 05:39:37;;;;;;;10.83;9.73;;;;;;;-0.17;100.00;96747.97;5044257;28;20201;-68
2023/03/18 05:42:05;;;;;;;10.63;9.53;;;;;;;-0.07;100.00;96750.66;5018046;28;20623;-68
2023/03/18 05:44:33;;;;;;;10.03;9.03;;;;;;;0.00;100.00;96753.59;5033463;28;20214;-68
2023/03/18 05:47:01;;;;;;;10.20;9.40;;;;;;;0.08;100.00;96742.50;5023717;28;20226;-70
2023/03/18 05:49:30;;;;;;;12.13;10.83;;;;;;;0.10;100.00;96751.00;5020856;28;20207;-67
2023/03/18 05:51:58;;;;;;;11.57;10.37;;;;;;;0.09;100.00;96742.38;4991620;28;20215;-67
2023/03/18 05:54:26;;;;;;;14.55;13.15;;;;;;;0.11;100.00;96744.84;5038135;28;20437;-67
2023/03/18 05:56:54;;;;;;;10.67;9.67;;;;;;;0.27;100.00;96747.00;5019121;28;20237;-69
2023/03/18 05:59:24;;;;;;;10.63;9.73;;;;;;;0.44;100.00;96737.72;5025634;28;20352;-69
2023/03/18 06:01:52;;;;;;;13.13;11.68;;;;;;;0.43;100.00;96736.09;5031011;28;20531;-71
2023/03/18 06:04:20;;;;;;;12.83;11.23;;;;;;;0.44;100.00;96732.53;5026471;28;20203;-70
2023/03/18 06:06:48;;;;;;;12.53;9.93;;;;;;;0.65;100.00;96729.03;4999607;28;20410;-70
2023/03/18 06:09:17;;;;;;;10.97;9.97;;;;;;;0.86;100.00;96734.16;5031075;28;20751;-69
2023/03/18 06:11:45;;;;;;;11.73;10.33;;;;;;;1.08;100.00;96735.72;5037323;28;20418;-69
2023/03/18 06:14:13;;;;;;;10.73;9.77;;;;;;;1.22;100.00;96733.66;5003465;28;20298;-68
2023/03/18 06:16:41;;;;;;;11.20;10.13;;;;;;;1.38;100.00;96728.75;5007603;28;20227;-70
2023/03/18 06:19:10;;;;;;;11.83;10.73;;;;;;;1.55;100.00;96729.00;5023100;28;20780;-69
2023/03/18 06:21:38;;;;;;;11.87;10.77;;;;;;;1.64;100.00;96719.50;5037476;28;20196;-70
2023/03/18 06:24:06;;;;;;;13.87;12.50;;;;;;;1.66;100.00;96731.47;4998610;28;20509;-70
2023/03/18 06:26:35;;;;;;;13.53;11.37;;;;;;;1.83;100.00;96739.56;5039303;28;20230;-71
2023/03/18 06:29:04;;;;;;;13.67;10.43;;;;;;;1.92;100.00;96740.53;5020499;28;20207;-71
2023/03/18 06:31:31;;;;;;;14.07;10.37;;;;;;;1.95;100.00;96741.03;5037612;28;20665;-71
2023/03/18 06:33:59;;;;;;;10.83;9.73;;;;;;;2.00;100.00;96744.06;5017046;28;20207;-72
2023/03/18 06:36:28;;;;;;;11.13;10.13;;;;;;;2.20;100.00;96745.81;5033002;28;20227;-72
2023/03/18 06:38:56;;;;;;;10.90;9.73;;;;;;;2.35;100.00;96747.00;4998001;28;20215;-71
2023/03/18 06:41:24;;;;;;;9.73;8.83;;;;;;;2.53;100.00;96754.09;5035655;28;20199;-71
2023/03/18 06:43:53;;;;;;;9.93;9.07;;;;;;;2.67;100.00;96752.78;5025058;28;20202;-71
2023/03/18 06:46:20;;;;;;;10.53;9.50;;;;;;;2.72;100.00;96759.25;5035374;28;20203;-71
2023/03/18 06:48:48;;;;;;;10.80;9.80;;;;;;;2.83;100.00;96755.59;5019316;28;20242;-71
2023/03/18 06:51:16;;;;;;;11.07;10.07;;;;;;;2.85;100.00;96763.31;5024216;28;20937;-71
2023/03/18 06:53:43;;;;;;;11.47;10.37;;;;;;;2.93;100.00;96765.22;4996730;28;20242;-71
2023/03/18 06:56:14;;;;;;;10.97;9.97;;;;;;;2.75;100.00;96768.59;5034638;28;20942;-70
2023/03/18 06:58:42;;;;;;;12.73;10.87;;;;;;;2.57;100.00;96778.97;5037937;28;20203;-70
2023/03/18 07:01:12;;;;;;;10.23;9.40;;;;;;;2.51;100.00;96761.25;4976080;28;20237;-72
2023/03/18 07:03:40;;;;;;;10.97;9.97;;;;;;;2.71;100.00;96772.47;5020140;28;20748;-72
2023/03/18 07:06:09;;;;;;;9.87;8.97;;;;;;;3.06;100.00;96781.38;5014476;28;20221;-69
2023/03/18 07:08:36;;;;;;;11.10;9.80;;;;;;;3.25;100.00;96785.69;4995032;28;20238;-71
2023/03/18 07:11:05;;;;;;;10.83;9.83;;;;;;;3.31;100.00;96782.47;5038849;28;20199;-70
2023/03/18 07:13:34;;;;;;;10.60;9.60;;;;;;;3.33;100.00;96779.72;5037936;28;20206;-71
2023/03/18 07:16:02;;;;;;;11.53;10.30;;;;;;;3.42;100.00;96780.63;4987905;28;20289;-71
2023/03/18 07:18:31;;;;;;;11.03;9.80;;;;;;;3.44;100.00;96782.09;5028638;28;20341;-70
2023/03/18 07:21:00;;;;;;;11.07;10.03;;;;;;;3.45;100.00;96785.56;4998471;28;20211;-71
2023/03/18 07:23:27;;;;;;;13.23;10.90;;;;;;;3.25;100.00;96767.34;4991988;28;20281;-70
2023/03/18 07:25:56;;;;;;;11.80;10.63;;;;;;;3.43;100.00;96785.69;5037339;28;20207;-70
2023/03/18 07:28:24;;;;;;;11.13;10.23;;;;;;;3.71;100.00;96785.63;5028799;28;20338;-68
2023/03/18 07:30:51;;;;;;;10.03;9.13;;;;;;;3.62;100.00;96782.13;5017612;28;20207;-70
2023/03/18 07:33:20;;;;;;;10.83;9.33;;;;;;;3.65;100.00;96785.41;5032619;28;20199;-70
2023/03/18 07:35:49;;;;;;;10.50;9.40;;;;;;;3.53;100.00;96787.41;5015183;28;20744;-70
2023/03/18 07:38:17;;;;;;;8.90;7.90;;;;;;;3.89;100.00;96784.78;5008237;28;20231;-71
2023/03/18 07:40:45;;;;;;;15.77;13.07;;;;;;;3.81;100.00;96782.94;5002105;28;20218;-71
2023/03/18 07:43:13;;;;;;;13.63;11.17;;;;;;;3.86;100.00;96785.94;5035294;28;20516;-70
2023/03/18 07:45:41;;;;;;;9.97;9.03;;;;;;;3.89;100.00;96788.25;4994676;28;20206;-70
2023/03/18 07:48:08;;;;;;;11.60;10.00;;;;;;;4.09;100.00;96788.06;5033679;28;20210;-70
2023/03/18 07:50:36;;;;;;;9.83;8.90;;;;;;;4.25;100.00;96786.53;5016533;28;20213;-71
2023/03/18 07:53:05;;;;;;;13.43;8.20;;;;;;;4.17;100.00;96784.69;5017066;28;20206;-70
2023/03/18 07:55:33;;;;;;;11.03;8.03;;;;;;;4.38;100.00;96791.38;4988142;28;20245;-71
2023/03/18 07:58:03;;;;;;;9.50;7.67;;;;;;;4.49;100.00;96785.88;5038114;28;20227;-71
2023/03/18 08:00:31;;;;;;;8.30;7.60;;;;;;;4.32;100.00;96777.88;5024029;28;20203;-70
2023/03/18 08:02:59;;;;;;;9.00;8.30;;;;;;;4.61;100.00;96787.22;5021893;28;20226;-71
2023/03/18 08:05:27;;;;;;;9.03;8.13;;;;;;;4.43;100.00;96789.13;5026069;28;20222;-70
2023/03/18 08:07:54;;;;;;;9.00;8.27;;;;;;;4.39;100.00;96785.16;5017717;28;20253;-70
2023/03/18 08:10:24;;;;;;;9.43;8.53;;;;;;;4.70;99.10;96789.91;5024157;28;21043;-69
2023/03/18 08:12:51;;;;;;;8.80;8.00;;;;;;;5.16;98.04;96784.34;4996685;28;20637;-70
2023/03/18 08:15:21;;;;;;;8.80;7.90;;;;;;;5.13;96.05;96784.66;5035869;28;21087;-71
2023/03/18 08:17:49;;;;;;;9.43;8.50;;;;;;;5.02;96.31;96780.53;5017983;28;20709;-70
2023/03/18 08:20:16;;;;;;;9.17;8.27;;;;;;;5.20;95.07;96789.13;5019539;28;21137;-72
2023/03/18 08:22:44;;;;;;;11.57;10.47;;;;;;;5.45;92.93;96785.75;5037292;28;20203;-71
2023/03/18 08:25:12;;;;;;;8.37;7.60;;;;;;;5.89;89.82;96790.72;5017389;28;20479;-69
2023/03/18 08:27:41;;;;;;;8.50;7.57;;;;;;;5.71;88.80;96790.06;4998962;28;20242;-70
2023/03/18 08:30:10;;;;;;;8.33;7.63;;;;;;;5.74;88.99;96795.78;5033008;28;20947;-69
2023/03/18 08:32:38;;;;;;;8.73;7.83;;;;;;;5.93;88.71;96793.84;5032913;28;20208;-69
2023/03/18 08:35:08;;;;;;;8.47;7.67;;;;;;;5.99;86.91;96801.06;5012185;28;20218;-68
2023/03/18 08:37:36;;;;;;;8.17;7.47;;;;;;;6.23;84.94;96797.66;5018799;28;20230;-69
2023/03/18 08:40:04;;;;;;;8.53;7.67;;;;;;;6.33;83.37;96794.00;5030096;28;20895;-70
2023/03/18 08:42:32;;;;;;;8.13;7.33;;;;;;;6.23;82.74;96783.66;4999312;28;21252;-69
2023/03/18 08:45:03;;;;;;;7.70;7.10;;;;;;;6.27;81.97;96792.88;5039305;28;20214;-69
2023/03/18 08:47:31;;;;;;;8.17;7.47;;;;;;;6.27;81.19;96787.63;5038545;28;20845;-69
2023/03/18 08:49:59;;;;;;;8.00;7.30;;;;;;;6.39;80.73;96792.53;5010540;28;20218;-69
2023/03/18 08:52:26;;;;;;;11.17;8.10;;;;;;;6.45;79.40;96783.97;5017007;28;20271;-70
2023/03/18 08:54:54;;;;;;;7.50;6.90;;;;;;;6.70;79.43;96789.19;5042683;28;20657;-69
2023/03/18 08:57:22;;;;;;;9.00;8.00;;;;;;;7.02;78.93;96788.22;4992868;28;20653;-70
2023/03/18 08:59:49;;;;;;;7.67;7.07;;;;;;;7.08;78.72;96792.00;5038383;28;20199;-69
2023/03/18 09:02:19;;;;;;;8.37;7.57;;;;;;;7.28;77.32;96797.69;5042921;28;20209;-69
2023/03/18 09:04:48;;;;;;;8.67;7.83;;;;;;;7.33;76.95;96799.78;5019877;28;20810;-69
2023/03/18 09:07:15;;;;;;;7.40;6.53;;;;;;;7.34;74.69;96798.78;5028823;28;20219;-69
2023/03/18 09:09:45;;;;;;;8.10;7.30;;;;;;;7.29;74.68;96787.94;5024703;28;20207;-69
2023/03/18 09:12:13;;;;;;;8.13;7.37;;;;;;;7.58;74.79;96800.47;5030825;28;20200;-69
2023/03/18 09:14:42;;;;;;;7.60;7.00;;;;;;;7.79;73.00;96796.38;4996215;28;20752;-69
2023/03/18 09:17:10;;;;;;;8.50;7.33;;;;;;;7.76;71.50;96788.81;5029283;28;20226;-70
2023/03/18 09:19:39;;;;;;;9.10;7.10;;;;;;;8.01;71.58;96792.09;5038264;28;20221;-69
2023/03/18 09:22:09;;;;;;;6.87;6.37;;;;;;;8.25;70.54;96795.53;5011719;28;20533;-70
2023/03/18 09:24:36;;;;;;;7.37;6.37;;;;;;;8.44;69.54;96785.44;5021469;28;20214;-70
2023/03/18 09:27:04;;;;;;;8.13;7.13;;;;;;;8.33;69.28;96794.63;5045048;28;20225;-69
2023/03/18 09:29:32;;;;;;;8.30;7.17;;;;;;;8.17;69.97;96790.31;5000994;28;20206;-70
2023/03/18 09:32:00;;;;;;;7.17;6.57;;;;;;;8.47;68.23;96793.84;5038282;28;20209;-70
2023/03/18 09:34:27;;;;;;;8.33;7.63;;;;;;;8.51;67.65;96791.66;5037552;28;20214;-70
2023/03/18 09:36:57;;;;;;;7.93;7.13;;;;;;;8.36;67.51;96789.81;5023834;28;20245;-70
2023/03/18 09:39:24;;;;;;;7.50;6.60;;;;;;;8.26;67.41;96792.69;5022250;28;20224;-70
2023/03/18 09:42:05;;;;;;;7.00;6.40;;;;;;;8.45;66.61;96787.09;5040978;28;20318;-70
2023/03/18 09:44:35;;;;;;;10.13;7.53;;;;;;;8.65;66.11;96792.69;5043662;28;20207;-70
2023/03/18 09:47:24;;;;;;;7.57;6.97;;;;;;;8.72;66.42;96798.06;5003880;28;20223;-70
2023/03/18 09:50:04;;;;;;;7.63;6.43;;;;;;;9.15;65.15;96797.44;5042454;28;20209;-70
2023/03/18 09:52:37;;;;;;;8.23;7.07;;;;;;;9.05;63.55;96795.88;5019222;28;20210;-68
2023/03/18 09:55:11;;;;;;;12.13;7.37;;;;;;;9.31;63.64;96783.19;5016270;28;20207;-69
2023/03/18 09:57:41;;;;;;;8.03;7.33;;;;;;;9.16;63.79;96788.50;5040350;28;20225;-70
2023/03/18 10:00:19;;;;;;;7.60;6.13;;;;;;;9.41;63.68;96792.44;5038537;28;20225;-70
2023/03/18 10:02:50;;;;;;;7.63;6.30;;;;;;;9.63;61.80;96799.59;5026837;28;20206;-70
2023/03/18 10:05:21;;;;;;;7.20;6.60;;;;;;;9.68;62.59;96799.88;5040734;28;20203;-70
2023/03/18 10:07:53;;;;;;;9.00;7.30;;;;;;;9.33;62.94;96779.34;5018543;28;20245;-70
2023/03/18 10:10:24;;;;;;;6.93;6.33;;;;;;;9.27;64.39;96780.09;5037929;28;20217;-71
2023/03/18 10:12:57;;;;;;;6.67;6.17;;;;;;;9.44;63.65;96791.25;5041324;28;20208;-71
2023/03/18 10:15:31;;;;;;;7.67;6.97;;;;;;;9.44;63.00;96790.41;5008052;28;20305;-70
2023/03/18 10:18:03;;;;;;;9.40;7.10;;;;;;;9.15;64.48;96781.56;5043913;28;20226;-69
2023/03/18 10:20:35;;;;;;;7.10;6.47;;;;;;;9.46;63.52;96788.41;5038872;28;20398;-70
2023/03/18 10:23:11;;;;;;;6.93;6.40;;;;;;;9.72;62.16;96787.91;5028132;28;20208;-70
2023/03/18 10:25:43;;;;;;;7.27;6.73;;;;;;;9.80;61.52;96784.28;5012977;28;20206;-70
2023/03/18 10:28:44;;;;;;;8.10;7.30;;;;;;;10.16;61.10;96782.59;5039832;28;20222;-70
2023/03/18 10:31:28;;;;;;;7.57;6.97;;;;;;;10.14;60.58;96783.59;4911345;28;20584;-69
2023/03/18 10:33:58;;;;;;;7.73;7.00;;;;;;;10.21;61.63;96788.13;5037780;28;20203;-70
2023/03/18 10:36:32;;;;;;;7.63;6.83;;;;;;;10.01;60.65;96786.09;5039814;28;20290;-70
2023/03/18 10:39:02;;;;;;;8.30;7.50;;;;;;;10.09;61.05;96778.06;5018505;28;20215;-69
2023/03/18 10:41:32;;;;;;;8.60;7.43;;;;;;;10.05;62.75;96766.22;5028628;28;20923;-69
2023/03/18 10:44:03;;;;;;;9.77;7.33;;;;;;;10.35;60.57;96776.59;5044860;28;20200;-70
2023/03/18 10:46:31;;;;;;;7.73;7.03;;;;;;;10.41;60.45;96769.78;4996587;28;20974;-70
2023/03/18 10:49:03;;;;;;;9.43;7.37;;;;;;;10.65;60.75;96775.63;5043965;28;20199;-69
2023/03/18 10:51:34;;;;;;;8.50;7.67;;;;;;;10.63;58.96;96778.47;5033714;28;20199;-70
2023/03/18 10:54:09;;;;;;;8.17;7.40;;;;;;;10.81;59.21;96777.16;5043335;28;20199;-70
2023/03/18 10:56:37;;;;;;;8.03;6.83;;;;;;;10.75;59.99;96760.19;5012286;28;21112;-69
2023/03/18 10:59:11;;;;;;;8.57;7.10;;;;;;;10.81;60.23;96758.63;5045917;28;20386;-71
2023/03/18 11:01:39;;;;;;;8.23;7.43;;;;;;;10.94;59.63;96768.44;5038925;28;20952;-72
2023/03/18 11:04:13;;;;;;;8.57;7.43;;;;;;;10.91;59.61;96753.75;4998579;28;20211;-69
2023/03/18 11:06:45;;;;;;;8.83;7.87;;;;;;;10.95;59.61;96760.31;5034635;28;20863;-69
2023/03/18 11:09:17;;;;;;;9.13;8.03;;;;;;;11.09;60.27;96753.22;5037526;28;20933;-70
2023/03/18 11:11:47;;;;;;;8.97;7.90;;;;;;;11.18;59.50;96756.53;5005507;28;23165;-69
2023/03/18 11:14:17;;;;;;;9.07;7.80;;;;;;;11.32;59.44;96754.72;5042208;28;20206;-69
2023/03/18 11:16:48;;;;;;;8.63;7.70;;;;;;;11.52;59.52;96748.66;5040365;28;20966;-69
2023/03/18 11:19:27;;;;;;;9.53;7.70;;;;;;;11.63;59.26;96752.56;5000415;28;20222;-70
2023/03/18 11:22:14;;;;;;;7.47;6.87;;;;;;;11.75;58.53;96742.19;5040346;28;20340;-70
2023/03/18 11:24:43;;;;;;;8.13;7.43;;;;;;;12.02;58.03;96740.41;5041500;28;20241;-70
2023/03/18 11:27:28;;;;;;;10.60;8.77;;;;;;;12.24;58.59;96729.56;5021589;28;20237;-72
2023/03/18 11:29:58;;;;;;;9.50;8.60;;;;;;;12.74;58.45;96727.22;5042855;28;20195;-71
2023/03/18 11:32:28;;;;;;;9.47;8.57;;;;;;;12.71;56.16;96722.34;5038893;28;20219;-72
2023/03/18 11:34:59;;;;;;;9.83;8.83;;;;;;;13.07;56.26;96729.97;5007206;28;20261;-71